createdAt,value
2023-03-23T15:58:31.872Z,9.90
2023-03-23T16:01:05.706Z,9.97
2023-03-23T16:03:39.515Z,8.70
2023-03-23T16:06:11.811Z,8.03
2023-03-23T16:08:41.921Z,7.80
2023-03-23T16:11:23.687Z,9.27
2023-03-23T16:13:52.626Z,10.83
2023-03-23T16:16:24.988Z,11.17
2023-03-23T16:18:53.624Z,11.20
2023-03-23T16:21:22.502Z,12.03
2023-03-23T16:23:52.351Z,11.63
2023-03-23T16:26:20.895Z,11.47
2023-03-23T16:28:49.625Z,13.17
2023-03-23T16:31:19.159Z,17.30
2023-03-23T16:33:47.721Z,19.50
2023-03-23T16:36:16.588Z,16.30
2023-03-23T16:38:49.025Z,17.30
2023-03-23T16:41:20.230Z,15.87
2023-03-23T16:43:48.781Z,15.77
2023-03-23T16:46:17.276Z,14.17
2023-03-23T16:48:45.838Z,12.50
2023-03-23T16:51:14.312Z,11.53
2023-03-23T16:53:42.749Z,12.20
2023-03-23T16:56:11.099Z,11.67
2023-03-23T16:58:41.706Z,11.40
2023-03-23T17:01:10.203Z,11.40
2023-03-23T17:03:38.745Z,11.70
2023-03-23T17:06:08.100Z,10.97
2023-03-23T17:08:36.667Z,10.60
2023-03-23T17:11:05.129Z,9.70
2023-03-23T17:13:33.567Z,9.67
2023-03-23T17:16:03.380Z,11.47
2023-03-23T17:18:32.107Z,12.73
2023-03-23T17:21:00.562Z,13.17
2023-03-23T17:23:28.955Z,12.80
2023-03-23T17:25:57.695Z,11.23
2023-03-23T17:28:26.138Z,11.30
2023-03-23T17:30:54.568Z,12.60
2023-03-23T17:33:24.435Z,11.57
2023-03-23T17:35:54.043Z,11.20
2023-03-23T17:38:22.500Z,11.60
2023-03-23T17:40:58.217Z,10.80
2023-03-23T17:43:26.794Z,12.27
2023-03-23T17:45:55.308Z,12.87
2023-03-23T17:48:25.237Z,11.43
2023-03-23T17:50:57.730Z,13.20
2023-03-23T17:53:26.628Z,13.00
2023-03-23T17:55:55.069Z,13.77
2023-03-23T17:58:25.216Z,17.43
2023-03-23T18:00:54.011Z,16.53
2023-03-23T18:03:24.568Z,17.37
2023-03-23T18:05:54.337Z,14.43
2023-03-23T18:08:22.726Z,13.07
2023-03-23T18:10:51.190Z,12.57
2023-03-23T18:13:19.690Z,14.17
2023-03-23T18:15:48.459Z,14.67
2023-03-23T18:18:17.079Z,13.17
2023-03-23T18:20:46.829Z,12.20
2023-03-23T18:23:16.056Z,11.83
2023-03-23T18:25:44.772Z,10.63
2023-03-23T18:28:13.446Z,10.47
2023-03-23T18:30:42.812Z,10.37
2023-03-23T18:33:11.221Z,11.33
2023-03-23T18:35:39.892Z,11.20
2023-03-23T18:38:10.167Z,46.33
2023-03-23T18:40:44.167Z,39.97
2023-03-23T18:43:12.655Z,26.63
2023-03-23T18:45:41.929Z,20.40
2023-03-23T18:48:10.801Z,17.70
2023-03-23T18:50:39.225Z,14.53
2023-03-23T18:53:08.961Z,13.97
2023-03-23T18:55:37.365Z,13.57
2023-03-23T18:58:06.054Z,12.70
2023-03-23T19:00:34.688Z,12.23
2023-03-23T19:03:04.613Z,12.20
2023-03-23T19:05:34.401Z,11.83
2023-03-23T19:08:03.765Z,11.23
2023-03-23T19:10:37.154Z,11.67
2023-03-23T19:13:05.778Z,11.00
2023-03-23T19:15:34.294Z,10.60
2023-03-23T19:18:02.863Z,11.33
2023-03-23T19:21:06.595Z,10.70
2023-03-23T19:23:20.968Z,10.27
2023-03-23T19:25:51.354Z,10.07
2023-03-23T19:29:03.909Z,9.50
2023-03-23T19:31:09.209Z,10.20
2023-03-23T19:33:37.742Z,20.63
2023-03-23T19:36:11.707Z,18.80
2023-03-23T19:38:41.608Z,16.77
2023-03-23T19:41:11.634Z,15.80
2023-03-23T19:43:41.885Z,13.80
2023-03-23T19:46:10.753Z,11.87
2023-03-23T19:48:40.001Z,11.43
2023-03-23T19:51:09.276Z,11.37
2023-03-23T19:53:39.562Z,10.77
2023-03-23T19:56:15.552Z,11.13
2023-03-23T19:58:44.085Z,13.33
2023-03-23T20:01:12.691Z,11.50
2023-03-23T20:03:42.218Z,11.10
2023-03-23T20:06:15.300Z,11.20
2023-03-23T20:08:45.974Z,12.07
2023-03-23T20:11:18.243Z,11.67
2023-03-23T20:13:48.780Z,11.60
2023-03-23T20:16:18.958Z,11.90
2023-03-23T20:18:47.825Z,12.50
2023-03-23T20:21:19.863Z,11.80
2023-03-23T20:23:48.912Z,12.77
2023-03-23T20:26:21.225Z,11.37
2023-03-23T20:28:49.971Z,12.27
2023-03-23T20:31:23.910Z,12.30
2023-03-23T20:34:01.162Z,11.70
2023-03-23T20:36:34.979Z,11.57
2023-03-23T20:39:05.214Z,14.53
2023-03-23T20:41:37.035Z,12.90
2023-03-23T20:44:07.137Z,11.70
2023-03-23T20:46:36.586Z,11.37
2023-03-23T20:49:06.078Z,16.20
2023-03-23T20:51:34.559Z,11.53
2023-03-23T20:54:03.890Z,11.83
2023-03-23T20:56:32.752Z,12.80
2023-03-23T20:59:02.633Z,15.03
2023-03-23T21:01:33.321Z,14.03
2023-03-23T21:04:03.274Z,14.73
2023-03-23T21:06:33.326Z,12.23
2023-03-23T21:09:02.410Z,12.40
2023-03-23T21:11:32.256Z,12.37
2023-03-23T21:14:02.012Z,11.97
2023-03-23T21:16:30.876Z,11.50
2023-03-23T21:18:59.345Z,12.43
2023-03-23T21:21:28.360Z,12.83
2023-03-23T21:23:57.639Z,11.87
2023-03-23T21:26:28.529Z,11.50
2023-03-23T21:29:00.338Z,10.73
2023-03-23T21:31:35.097Z,10.20
2023-03-23T21:34:03.927Z,11.47
2023-03-23T21:36:32.556Z,11.07
2023-03-23T21:39:02.281Z,10.60
2023-03-23T21:41:31.277Z,9.80
2023-03-23T21:44:11.427Z,11.17
2023-03-23T21:46:42.152Z,11.83
2023-03-23T21:49:14.483Z,10.97
2023-03-23T21:51:44.029Z,11.87
2023-03-23T21:54:12.886Z,11.07
2023-03-23T21:56:41.840Z,12.33
2023-03-23T21:59:10.381Z,12.07
2023-03-23T22:01:40.659Z,10.83
2023-03-23T22:04:09.373Z,11.20
2023-03-23T22:06:37.894Z,10.73
2023-03-23T22:09:06.913Z,10.40
2023-03-23T22:11:35.678Z,11.07
2023-03-23T22:14:05.037Z,11.60
2023-03-23T22:16:34.029Z,11.80
2023-03-23T22:19:03.777Z,16.13
2023-03-23T22:21:32.438Z,13.57
2023-03-23T22:24:02.043Z,14.00
2023-03-23T22:26:31.801Z,14.80
2023-03-23T22:29:01.556Z,13.33
2023-03-23T22:31:34.098Z,13.30
2023-03-23T22:34:05.332Z,12.33
2023-03-23T22:36:34.889Z,11.60
2023-03-23T22:39:04.251Z,12.20
2023-03-23T22:41:34.618Z,11.73
2023-03-23T22:44:03.544Z,12.97
2023-03-23T22:46:32.393Z,11.40
2023-03-23T22:49:01.057Z,11.70
2023-03-23T22:51:31.677Z,11.07
2023-03-23T22:54:00.323Z,11.77
2023-03-23T22:56:28.924Z,12.10
2023-03-23T22:59:00.143Z,12.67
2023-03-23T23:01:29.492Z,10.47
2023-03-23T23:03:58.186Z,12.73
2023-03-23T23:06:26.883Z,11.57
2023-03-23T23:08:56.693Z,12.00
2023-03-23T23:11:26.399Z,12.53
2023-03-23T23:13:55.264Z,12.33
2023-03-23T23:16:26.407Z,12.63
2023-03-23T23:18:55.689Z,12.63
2023-03-23T23:21:26.818Z,12.73
2023-03-23T23:23:56.971Z,12.80
2023-03-23T23:26:25.503Z,12.97
2023-03-23T23:28:54.029Z,13.10
2023-03-23T23:31:27.226Z,12.03
2023-03-23T23:33:57.660Z,11.80
2023-03-23T23:36:30.301Z,11.77
2023-03-23T23:39:02.299Z,11.80
2023-03-23T23:41:31.821Z,11.60
2023-03-23T23:44:01.494Z,12.13
2023-03-23T23:46:31.719Z,12.23
2023-03-23T23:49:01.362Z,12.73
2023-03-23T23:51:33.869Z,14.03
2023-03-23T23:54:04.746Z,13.37
2023-03-23T23:56:33.348Z,13.47
2023-03-23T23:59:02.166Z,14.03
